createdAt,value
2023-04-15T00:00:56.237Z,9.27
2023-04-15T00:03:23.062Z,9.13
2023-04-15T00:05:49.682Z,9.88
2023-04-15T00:08:16.205Z,8.73
2023-04-15T00:10:44.282Z,8.93
2023-04-15T00:13:11.082Z,8.73
2023-04-15T00:15:37.805Z,9.50
2023-04-15T00:18:04.583Z,8.60
2023-04-15T00:20:31.433Z,9.15
2023-04-15T00:22:58.841Z,9.38
2023-04-15T00:25:25.275Z,12.00
2023-04-15T00:27:51.659Z,15.65
2023-04-15T00:30:18.606Z,18.40
2023-04-15T00:32:45.064Z,17.85
2023-04-15T00:35:11.581Z,17.85
2023-04-15T00:37:38.212Z,16.50
2023-04-15T00:40:05.054Z,14.80
2023-04-15T00:42:31.692Z,13.57
2023-04-15T00:44:58.129Z,12.15
2023-04-15T00:47:25.190Z,11.13
2023-04-15T00:49:52.156Z,11.35
2023-04-15T00:52:18.871Z,10.52
2023-04-15T00:54:45.347Z,11.30
2023-04-15T00:57:11.794Z,12.00
2023-04-15T00:59:38.300Z,12.45
2023-04-15T01:02:05.663Z,12.13
2023-04-15T01:04:32.731Z,12.00
2023-04-15T01:06:59.201Z,13.20
2023-04-15T01:09:25.703Z,12.75
2023-04-15T01:11:52.446Z,12.10
2023-04-15T01:14:19.549Z,11.95
2023-04-15T01:16:46.026Z,11.85
2023-04-15T01:19:14.514Z,10.88
2023-04-15T01:21:41.190Z,11.25
2023-04-15T01:24:09.773Z,10.02
2023-04-15T01:26:37.930Z,10.77
2023-04-15T01:29:04.379Z,11.55
2023-04-15T01:31:30.785Z,11.05
2023-04-15T01:33:57.420Z,14.32
2023-04-15T01:36:23.911Z,13.55
2023-04-15T01:38:50.961Z,12.85
2023-04-15T01:41:17.495Z,13.00
2023-04-15T01:43:43.909Z,12.88
2023-04-15T01:46:10.328Z,12.02
2023-04-15T01:48:37.359Z,11.80
2023-04-15T01:51:03.833Z,11.48
2023-04-15T01:53:30.366Z,11.00
2023-04-15T01:55:57.228Z,11.52
2023-04-15T01:58:23.713Z,11.88
2023-04-15T02:00:50.196Z,11.90
2023-04-15T02:03:16.991Z,12.07
2023-04-15T02:05:43.797Z,12.35
2023-04-15T02:08:10.177Z,12.48
2023-04-15T02:10:36.596Z,12.27
2023-04-15T02:13:03.072Z,11.50
2023-04-15T02:15:29.656Z,11.20
2023-04-15T02:17:56.205Z,11.68
2023-04-15T02:20:23.349Z,12.40
2023-04-15T02:22:49.868Z,12.20
2023-04-15T02:25:19.054Z,12.38
2023-04-15T02:27:45.753Z,11.40
2023-04-15T02:30:12.211Z,11.65
2023-04-15T02:32:38.640Z,12.52
2023-04-15T02:35:05.957Z,12.68
2023-04-15T02:37:32.631Z,12.50
2023-04-15T02:39:59.044Z,11.80
2023-04-15T02:42:27.797Z,12.27
2023-04-15T02:44:55.086Z,12.15
2023-04-15T02:47:21.559Z,11.93
2023-04-15T02:49:47.992Z,12.88
2023-04-15T02:52:14.458Z,12.25
2023-04-15T02:54:40.771Z,11.80
2023-04-15T02:57:07.440Z,13.90
2023-04-15T02:59:33.844Z,12.68
2023-04-15T03:02:03.137Z,13.57
2023-04-15T03:04:30.845Z,12.60
2023-04-15T03:06:57.531Z,13.27
2023-04-15T03:09:23.969Z,12.35
2023-04-15T03:11:52.402Z,13.15
2023-04-15T03:14:19.077Z,12.13
2023-04-15T03:16:45.426Z,12.07
2023-04-15T03:19:11.858Z,12.40
2023-04-15T03:21:38.243Z,12.63
2023-04-15T03:24:04.658Z,13.35
2023-04-15T03:26:31.768Z,13.60
2023-04-15T03:28:58.501Z,12.63
2023-04-15T03:31:25.008Z,14.07
2023-04-15T03:33:51.422Z,14.55
2023-04-15T03:36:17.941Z,14.25
2023-04-15T03:38:44.425Z,14.90
2023-04-15T03:41:10.898Z,15.05
2023-04-15T03:43:37.232Z,13.70
2023-04-15T03:46:03.758Z,14.50
2023-04-15T03:48:30.216Z,14.35
2023-04-15T03:50:56.647Z,15.70
2023-04-15T03:53:23.104Z,15.38
2023-04-15T03:55:49.658Z,15.07
2023-04-15T03:58:16.004Z,14.52
2023-04-15T04:00:42.571Z,15.02
2023-04-15T04:03:09.116Z,14.98
2023-04-15T04:05:38.940Z,15.55
2023-04-15T04:10:32.022Z,15.35
2023-04-15T04:12:58.444Z,16.05
2023-04-15T04:15:24.824Z,15.88
2023-04-15T04:17:51.535Z,15.77
2023-04-15T04:20:17.929Z,16.05
2023-04-15T04:22:44.420Z,14.93
2023-04-15T04:25:11.257Z,16.95
2023-04-15T04:27:37.704Z,16.50
2023-04-15T04:30:04.989Z,15.68
2023-04-15T04:32:31.445Z,15.77
2023-04-15T04:34:57.840Z,16.70
2023-04-15T04:37:24.687Z,16.55
2023-04-15T04:39:51.273Z,15.80
2023-04-15T04:42:17.630Z,16.45
2023-04-15T04:44:43.999Z,16.98
2023-04-15T04:47:10.493Z,17.45
2023-04-15T04:49:36.895Z,15.38
2023-04-15T04:52:03.369Z,16.38
2023-04-15T04:54:31.221Z,15.93
2023-04-15T04:56:57.900Z,15.50
2023-04-15T04:59:24.645Z,15.70
2023-04-15T05:01:51.500Z,15.93
2023-04-15T05:04:17.923Z,16.38
2023-04-15T05:06:44.394Z,14.80
2023-04-15T05:09:11.103Z,15.75
2023-04-15T05:11:39.070Z,15.85
2023-04-15T05:14:05.476Z,16.48
2023-04-15T05:16:31.856Z,15.77
2023-04-15T05:18:59.869Z,16.88
2023-04-15T05:21:27.598Z,16.17
2023-04-15T05:23:54.050Z,15.52
2023-04-15T05:26:21.697Z,16.38
2023-04-15T05:28:48.120Z,16.85
2023-04-15T05:31:14.582Z,16.55
2023-04-15T05:33:40.956Z,15.02
2023-04-15T05:36:07.420Z,14.95
2023-04-15T05:38:33.826Z,15.07
2023-04-15T05:41:00.280Z,15.00
2023-04-15T05:43:26.588Z,16.08
2023-04-15T05:45:53.202Z,15.43
2023-04-15T05:48:19.636Z,14.85
2023-04-15T05:50:46.082Z,14.35
2023-04-15T05:53:12.484Z,14.82
2023-04-15T05:55:38.854Z,14.68
2023-04-15T05:58:05.311Z,14.38
2023-04-15T06:00:34.746Z,13.93
2023-04-15T06:03:01.280Z,14.35
2023-04-15T06:05:27.825Z,13.52
2023-04-15T06:07:54.318Z,14.80
2023-04-15T06:10:20.726Z,14.00
2023-04-15T06:12:47.605Z,13.05
2023-04-15T06:15:14.060Z,13.60
2023-04-15T06:17:40.563Z,14.38
2023-04-15T06:20:08.947Z,13.93
2023-04-15T06:22:36.937Z,14.02
2023-04-15T06:25:03.433Z,13.48
2023-04-15T06:27:29.835Z,13.75
2023-04-15T06:29:56.264Z,13.68
2023-04-15T06:32:22.626Z,13.57
2023-04-15T06:34:48.998Z,12.63
2023-04-15T06:37:16.499Z,13.60
2023-04-15T06:39:43.531Z,12.98
2023-04-15T06:42:10.123Z,12.30
2023-04-15T06:44:37.191Z,11.98
2023-04-15T06:47:03.670Z,12.02
2023-04-15T06:49:30.053Z,13.38
2023-04-15T06:51:56.692Z,11.88
2023-04-15T06:54:23.035Z,12.10
2023-04-15T06:56:49.996Z,12.32
2023-04-15T06:59:16.422Z,12.10
2023-04-15T07:01:42.793Z,11.25
2023-04-15T07:04:09.179Z,11.65
2023-04-15T07:06:35.808Z,11.25
2023-04-15T07:09:05.166Z,11.45
2023-04-15T07:11:32.044Z,11.05
2023-04-15T07:13:58.814Z,11.18
2023-04-15T07:16:26.614Z,11.00
2023-04-15T07:18:54.288Z,10.40
2023-04-15T07:21:21.252Z,10.13
2023-04-15T07:23:47.577Z,11.13
2023-04-15T07:26:14.014Z,10.25
2023-04-15T07:28:40.598Z,10.85
2023-04-15T07:31:07.186Z,10.52
2023-04-15T07:33:33.519Z,9.93
2023-04-15T07:35:59.986Z,10.07
2023-04-15T07:38:26.405Z,9.93
2023-04-15T07:40:52.886Z,9.77
2023-04-15T07:43:21.318Z,9.20
2023-04-15T07:45:47.754Z,10.20
2023-04-15T07:48:14.159Z,9.82
2023-04-15T07:50:40.779Z,10.20
2023-04-15T07:53:07.559Z,9.68
2023-04-15T07:55:33.956Z,10.10
2023-04-15T07:58:00.480Z,10.27
2023-04-15T08:00:26.964Z,9.65
2023-04-15T08:02:54.120Z,10.00
2023-04-15T08:05:20.703Z,9.30
2023-04-15T08:07:47.166Z,9.40
2023-04-15T08:10:14.315Z,9.80
2023-04-15T08:12:40.840Z,10.18
2023-04-15T08:15:08.338Z,9.20
2023-04-15T08:17:34.810Z,9.40
2023-04-15T08:20:01.793Z,9.07
2023-04-15T08:22:28.708Z,9.30
2023-04-15T08:24:55.082Z,9.10
2023-04-15T08:27:21.595Z,9.80
2023-04-15T08:29:48.033Z,8.70
2023-04-15T08:32:14.967Z,9.23
2023-04-15T08:34:41.530Z,9.52
2023-04-15T08:37:08.382Z,8.60
2023-04-15T08:39:34.779Z,9.20
2023-04-15T08:42:02.729Z,8.73
2023-04-15T08:44:31.508Z,9.00
2023-04-15T08:47:00.523Z,9.27
2023-04-15T08:49:27.210Z,8.88
2023-04-15T08:51:53.625Z,7.75
2023-04-15T08:54:20.292Z,8.50
2023-04-15T08:56:47.074Z,8.90
2023-04-15T08:59:13.881Z,8.43
2023-04-15T09:01:40.717Z,8.75
2023-04-15T09:04:08.288Z,8.52
2023-04-15T09:06:34.939Z,9.10
2023-04-15T09:09:01.707Z,8.82
2023-04-15T09:11:30.813Z,8.13
2023-04-15T09:16:24.028Z,9.07
2023-04-15T09:18:50.734Z,8.65
2023-04-15T09:21:17.677Z,8.95
2023-04-15T09:23:58.267Z,9.15
2023-04-15T09:26:34.980Z,9.10
2023-04-15T09:29:09.336Z,9.00
2023-04-15T09:31:38.560Z,9.25
2023-04-15T09:34:05.728Z,9.15
2023-04-15T09:36:48.619Z,8.48
2023-04-15T09:39:16.871Z,8.90
2023-04-15T09:41:44.389Z,8.82
2023-04-15T09:44:23.800Z,9.25
2023-04-15T09:46:50.218Z,9.25
2023-04-15T09:49:17.952Z,9.27
2023-04-15T09:51:54.144Z,8.93
2023-04-15T09:54:35.075Z,9.20
2023-04-15T09:57:05.401Z,8.98
2023-04-15T09:59:31.930Z,9.02
2023-04-15T10:01:58.463Z,9.20
2023-04-15T10:04:25.794Z,9.60
2023-04-15T10:06:52.398Z,9.63
2023-04-15T10:09:19.387Z,9.95
2023-04-15T10:11:46.368Z,9.38
2023-04-15T10:14:13.687Z,9.90
2023-04-15T10:16:43.154Z,9.45
2023-04-15T10:19:09.999Z,9.82
2023-04-15T10:21:37.763Z,9.50
2023-04-15T10:24:05.468Z,9.50
2023-04-15T10:26:32.397Z,9.32
2023-04-15T10:29:00.168Z,9.65
2023-04-15T10:31:26.833Z,10.13
2023-04-15T10:33:53.541Z,10.23
2023-04-15T10:36:20.630Z,9.73
2023-04-15T10:38:47.229Z,9.77
2023-04-15T10:41:20.135Z,9.05
2023-04-15T10:44:03.295Z,9.68
2023-04-15T10:46:45.877Z,9.23
2023-04-15T10:49:16.455Z,9.50
2023-04-15T10:51:47.073Z,8.77
2023-04-15T10:54:14.541Z,8.07
2023-04-15T10:56:44.850Z,8.80
2023-04-15T10:59:11.482Z,9.30
2023-04-15T11:01:50.624Z,8.80
2023-04-15T11:04:37.133Z,9.00
2023-04-15T11:07:07.022Z,8.48
2023-04-15T11:09:34.073Z,9.20
2023-04-15T11:12:10.655Z,8.05
2023-04-15T11:14:41.703Z,8.18
2023-04-15T11:17:08.240Z,7.95
2023-04-15T11:19:39.001Z,8.13
2023-04-15T11:22:11.580Z,9.00
2023-04-15T11:24:47.490Z,9.07
2023-04-15T11:27:23.980Z,8.45
2023-04-15T11:29:50.486Z,8.63
2023-04-15T11:32:16.968Z,8.30
2023-04-15T11:34:46.055Z,8.90
2023-04-15T11:37:13.063Z,8.27
2023-04-15T11:39:39.482Z,9.00
2023-04-15T11:42:16.422Z,7.93
2023-04-15T11:44:42.854Z,8.15
2023-04-15T11:47:25.065Z,8.50
2023-04-15T11:49:51.734Z,8.50
2023-04-15T11:52:18.266Z,8.07
2023-04-15T11:54:44.756Z,7.70
2023-04-15T11:57:11.452Z,7.53
2023-04-15T11:59:45.995Z,7.40
2023-04-15T12:02:13.628Z,7.60
2023-04-15T12:04:40.360Z,7.72
2023-04-15T12:07:07.583Z,7.00
2023-04-15T12:10:16.291Z,7.40
2023-04-15T12:12:42.787Z,7.30
2023-04-15T12:15:09.960Z,6.72
2023-04-15T12:17:50.814Z,7.88
2023-04-15T12:20:24.965Z,8.10
2023-04-15T12:22:51.338Z,7.30
2023-04-15T12:25:17.793Z,6.75
2023-04-15T12:27:50.764Z,7.72
2023-04-15T12:30:17.132Z,7.65
2023-04-15T12:32:45.965Z,7.25
2023-04-15T12:37:38.827Z,7.75
2023-04-15T12:40:08.415Z,7.88
2023-04-15T12:42:35.495Z,7.95
2023-04-15T12:45:02.425Z,7.57
2023-04-15T12:47:28.873Z,7.32
2023-04-15T12:49:55.349Z,8.07
2023-04-15T12:52:22.050Z,8.35
2023-04-15T12:54:48.447Z,7.68
2023-04-15T12:57:14.852Z,8.40
2023-04-15T12:59:41.490Z,8.82
2023-04-15T13:02:08.122Z,8.57
2023-04-15T13:04:34.751Z,8.07
2023-04-15T13:07:01.721Z,7.57
2023-04-15T13:09:28.160Z,7.75
2023-04-15T13:11:54.776Z,8.25
2023-04-15T13:14:21.475Z,7.70
2023-04-15T13:16:47.910Z,7.50
2023-04-15T13:19:14.481Z,7.38
2023-04-15T13:21:41.038Z,7.82
2023-04-15T13:24:07.897Z,7.82
2023-04-15T13:26:34.924Z,8.38
2023-04-15T13:29:01.378Z,7.65
2023-04-15T13:31:27.789Z,8.18
2023-04-15T13:33:54.323Z,8.00
2023-04-15T13:36:21.135Z,8.18
2023-04-15T13:38:50.463Z,7.43
2023-04-15T13:41:17.823Z,7.95
2023-04-15T13:43:44.292Z,7.38
2023-04-15T13:46:11.181Z,7.68
2023-04-15T13:48:37.754Z,7.25
2023-04-15T13:51:04.223Z,7.18
2023-04-15T13:53:39.158Z,7.95
2023-04-15T13:56:09.337Z,7.45
2023-04-15T13:58:36.635Z,7.45
2023-04-15T14:01:05.777Z,7.57
2023-04-15T14:03:33.513Z,6.85
2023-04-15T14:06:00.112Z,7.03
2023-04-15T14:08:26.706Z,7.13
2023-04-15T14:10:53.321Z,6.70
2023-04-15T14:13:20.110Z,6.75
2023-04-15T14:15:46.914Z,6.93
2023-04-15T14:18:13.483Z,6.38
2023-04-15T14:20:39.884Z,6.32
2023-04-15T14:23:08.880Z,6.45
2023-04-15T14:25:35.547Z,6.60
2023-04-15T14:28:02.440Z,6.15
2023-04-15T14:30:28.993Z,6.57
2023-04-15T14:32:55.499Z,6.80
2023-04-15T14:35:22.037Z,6.25
2023-04-15T14:37:49.621Z,6.35
2023-04-15T14:40:16.122Z,6.07
2023-04-15T14:42:42.596Z,6.57
2023-04-15T14:45:09.423Z,6.72
2023-04-15T14:47:36.065Z,6.38
2023-04-15T14:50:02.773Z,6.68
2023-04-15T14:52:30.405Z,5.93
2023-04-15T14:54:56.899Z,6.43
2023-04-15T14:57:23.276Z,6.63
2023-04-15T14:59:49.670Z,6.40
2023-04-15T15:02:26.258Z,5.97
2023-04-15T15:05:03.527Z,6.05
2023-04-15T15:07:30.098Z,6.38
2023-04-15T15:09:56.661Z,6.47
2023-04-15T15:12:23.581Z,6.30
2023-04-15T15:14:50.189Z,5.78
2023-04-15T15:17:16.638Z,5.80
2023-04-15T15:19:43.200Z,5.85
2023-04-15T15:22:09.626Z,6.43
2023-04-15T15:24:36.060Z,6.18
2023-04-15T15:27:02.883Z,6.85
2023-04-15T15:29:29.281Z,6.82
2023-04-15T15:31:55.886Z,6.57
2023-04-15T15:34:22.509Z,5.47
2023-04-15T15:36:49.184Z,6.18
2023-04-15T15:39:16.051Z,6.07
2023-04-15T15:41:42.571Z,6.95
2023-04-15T15:44:09.057Z,6.55
2023-04-15T15:46:35.535Z,6.40
2023-04-15T15:49:02.931Z,6.88
2023-04-15T15:51:29.807Z,6.53
2023-04-15T15:53:56.243Z,6.82
2023-04-15T15:56:22.695Z,6.40
2023-04-15T15:58:49.072Z,7.00
2023-04-15T16:01:15.799Z,6.65
2023-04-15T16:03:42.372Z,6.93
2023-04-15T16:06:08.971Z,6.40
2023-04-15T16:08:35.379Z,7.18
2023-04-15T16:11:01.788Z,6.57
2023-04-15T16:13:28.298Z,6.68
2023-04-15T16:15:54.691Z,7.03
2023-04-15T16:18:21.395Z,6.95
2023-04-15T16:20:48.062Z,7.28
2023-04-15T16:23:16.380Z,7.10
2023-04-15T16:25:43.701Z,7.28
2023-04-15T16:28:25.132Z,6.53
2023-04-15T16:30:53.520Z,6.85
2023-04-15T16:33:20.203Z,7.00
2023-04-15T16:35:46.526Z,7.10
2023-04-15T16:38:13.149Z,7.10
2023-04-15T16:40:39.606Z,7.15
2023-04-15T16:43:11.593Z,7.68
2023-04-15T16:45:38.216Z,7.25
2023-04-15T16:48:04.863Z,6.75
2023-04-15T16:50:31.542Z,7.20
2023-04-15T16:52:57.956Z,6.75
2023-04-15T16:55:24.514Z,7.40
2023-04-15T16:58:02.458Z,7.70
2023-04-15T17:02:59.664Z,6.40
2023-04-15T17:05:30.586Z,6.82
2023-04-15T17:07:57.152Z,6.78
2023-04-15T17:10:23.655Z,7.40
2023-04-15T17:12:52.119Z,6.50
2023-04-15T17:15:19.017Z,7.50
2023-04-15T17:17:45.514Z,7.05
2023-04-15T17:20:12.570Z,6.53
2023-04-15T17:22:38.939Z,6.80
2023-04-15T17:25:05.886Z,6.78
2023-04-15T17:27:32.347Z,7.50
2023-04-15T17:29:58.750Z,6.63
2023-04-15T17:32:26.412Z,7.35
2023-04-15T17:34:52.996Z,7.45
2023-04-15T17:37:19.399Z,7.18
2023-04-15T17:39:45.795Z,7.05
2023-04-15T17:42:12.385Z,5.72
2023-04-15T17:44:38.815Z,6.90
2023-04-15T17:47:05.205Z,7.13
2023-04-15T17:49:32.741Z,6.68
2023-04-15T17:51:59.071Z,7.07
2023-04-15T17:54:25.504Z,6.57
2023-04-15T17:56:51.965Z,6.60
2023-04-15T17:59:18.341Z,7.03
2023-04-15T18:01:45.633Z,6.82
2023-04-15T18:04:12.661Z,7.30
2023-04-15T18:06:39.316Z,7.15
2023-04-15T18:09:06.605Z,7.03
2023-04-15T18:11:33.595Z,6.72
2023-04-15T18:14:02.493Z,6.70
2023-04-15T18:16:28.937Z,7.38
2023-04-15T18:18:55.336Z,7.20
2023-04-15T18:21:21.841Z,7.28
2023-04-15T18:23:48.223Z,7.15
2023-04-15T18:26:14.625Z,8.30
2023-04-15T18:28:41.208Z,7.68
2023-04-15T18:31:07.717Z,7.10
2023-04-15T18:33:35.831Z,7.22
2023-04-15T18:36:04.879Z,7.03
2023-04-15T18:38:31.812Z,8.00
2023-04-15T18:40:58.905Z,7.57
2023-04-15T18:43:25.469Z,7.82
2023-04-15T18:45:52.385Z,8.48
2023-04-15T18:48:18.920Z,8.05
2023-04-15T18:50:45.360Z,8.13
2023-04-15T18:53:11.741Z,7.97
2023-04-15T18:55:39.050Z,8.13
2023-04-15T18:58:08.887Z,9.07
2023-04-15T19:00:39.038Z,9.25
2023-04-15T19:03:06.361Z,8.50
2023-04-15T19:05:32.923Z,9.50
2023-04-15T19:07:59.806Z,8.30
2023-04-15T19:10:28.070Z,8.38
2023-04-15T19:12:54.935Z,8.23
2023-04-15T19:15:21.578Z,8.43
2023-04-15T19:17:48.285Z,8.75
2023-04-15T19:20:14.681Z,9.23
2023-04-15T19:22:41.800Z,9.32
2023-04-15T19:25:08.541Z,8.35
2023-04-15T19:27:34.961Z,8.70
2023-04-15T19:30:02.027Z,9.25
2023-04-15T19:32:28.599Z,8.07
2023-04-15T19:34:55.050Z,8.95
2023-04-15T19:37:21.515Z,7.82
2023-04-15T19:39:47.936Z,8.32
2023-04-15T19:42:14.559Z,8.55
2023-04-15T19:44:42.877Z,8.00
2023-04-15T19:47:09.842Z,7.70
2023-04-15T19:49:36.406Z,8.55
2023-04-15T19:52:04.250Z,7.97
2023-04-15T19:54:32.266Z,7.55
2023-04-15T19:56:59.084Z,8.25
2023-04-15T19:59:25.854Z,7.90
2023-04-15T20:01:52.579Z,7.63
2023-04-15T20:04:19.268Z,7.80
2023-04-15T20:06:45.836Z,8.00
2023-04-15T20:09:12.444Z,7.68
2023-04-15T20:12:45.887Z,6.97
2023-04-15T20:14:25.615Z,6.90
2023-04-15T20:16:52.268Z,7.18
2023-04-15T20:19:18.684Z,8.18
2023-04-15T20:21:45.487Z,6.93
2023-04-15T20:24:12.024Z,6.93
2023-04-15T20:26:38.465Z,7.18
2023-04-15T20:29:05.462Z,7.53
2023-04-15T20:31:32.316Z,6.82
2023-04-15T20:33:58.739Z,6.95
2023-04-15T20:36:25.208Z,6.68
2023-04-15T20:38:51.586Z,7.05
2023-04-15T20:41:18.104Z,6.43
2023-04-15T20:43:44.532Z,6.47
2023-04-15T20:46:20.439Z,6.38
2023-04-15T20:48:47.745Z,7.28
2023-04-15T20:51:15.192Z,7.20
2023-04-15T20:53:42.163Z,7.82
2023-04-15T20:56:09.025Z,7.20
2023-04-15T20:58:35.476Z,6.70
2023-04-15T21:01:02.162Z,7.07
2023-04-15T21:03:31.760Z,7.05
2023-04-15T21:05:58.220Z,6.75
2023-04-15T21:08:29.269Z,6.72
2023-04-15T21:10:58.620Z,7.07
2023-04-15T21:13:25.073Z,6.18
2023-04-15T21:15:53.988Z,6.10
2023-04-15T21:18:21.103Z,6.47
2023-04-15T21:20:47.651Z,6.95
2023-04-15T21:23:13.996Z,6.82
2023-04-15T21:25:40.622Z,6.57
2023-04-15T21:28:07.010Z,6.10
2023-04-15T21:30:33.355Z,6.57
2023-04-15T21:32:59.773Z,6.53
2023-04-15T21:35:26.218Z,6.22
2023-04-15T21:37:52.580Z,6.50
2023-04-15T21:40:19.594Z,6.20
2023-04-15T21:42:46.084Z,6.93
2023-04-15T21:45:12.604Z,6.70
2023-04-15T21:47:56.868Z,6.85
2023-04-15T21:50:25.336Z,6.75
2023-04-15T21:52:51.765Z,6.80
2023-04-15T21:55:18.212Z,6.80
2023-04-15T21:57:44.663Z,7.57
2023-04-15T22:00:11.640Z,7.05
2023-04-15T22:02:38.338Z,6.97
2023-04-15T22:05:05.394Z,7.10
2023-04-15T22:07:31.790Z,6.88
2023-04-15T22:09:58.205Z,6.30
2023-04-15T22:12:24.574Z,6.63
2023-04-15T22:14:51.088Z,6.45
2023-04-15T22:17:17.678Z,7.03
2023-04-15T22:19:45.252Z,7.38
2023-04-15T22:22:11.687Z,6.93
2023-04-15T22:24:40.881Z,7.28
2023-04-15T22:27:07.868Z,7.05
2023-04-15T22:29:34.611Z,6.95
2023-04-15T22:32:01.230Z,7.80
2023-04-15T22:34:27.669Z,8.00
2023-04-15T22:36:54.116Z,7.28
2023-04-15T22:39:20.958Z,7.78
2023-04-15T22:41:47.415Z,7.70
2023-04-15T22:44:13.829Z,7.57
2023-04-15T22:46:40.511Z,7.18
2023-04-15T22:49:07.851Z,7.18
2023-04-15T22:51:34.346Z,7.15
2023-04-15T22:54:00.892Z,6.72
2023-04-15T22:56:27.261Z,7.43
2023-04-15T22:58:53.590Z,7.82
2023-04-15T23:01:20.918Z,7.78
2023-04-15T23:03:55.920Z,7.35
2023-04-15T23:06:24.981Z,7.32
2023-04-15T23:08:51.749Z,7.38
2023-04-15T23:11:18.495Z,7.38
2023-04-15T23:13:45.039Z,7.60
2023-04-15T23:16:11.630Z,8.55
2023-04-15T23:18:38.054Z,7.07
2023-04-15T23:21:04.608Z,6.90
2023-04-15T23:23:31.285Z,7.78
2023-04-15T23:25:57.718Z,7.55
2023-04-15T23:28:24.135Z,7.22
2023-04-15T23:30:50.700Z,6.55
2023-04-15T23:33:17.035Z,7.15
2023-04-15T23:35:43.509Z,6.85
2023-04-15T23:38:09.967Z,7.00
2023-04-15T23:40:36.359Z,6.78
2023-04-15T23:43:02.880Z,7.68
2023-04-15T23:45:29.303Z,7.05
2023-04-15T23:47:55.879Z,7.28
2023-04-15T23:50:22.329Z,7.38
2023-04-15T23:52:48.774Z,7.38
2023-04-15T23:55:15.422Z,7.55
2023-04-15T23:57:41.848Z,7.40
